Callahan, Florida
Current Conditions -  °F | °C
As of 6:56 AM on Friday 19 Dec 2014 (Local Time) from KJAX Reporting Station
Broken Clouds Broken Clouds  
Wind Chill: 44°   Ceiling: 24000
Heat Index: 44°   Visibility: 10mi
Dew Point: 42°   Wind: 0mph
Humidity: 93%   Direction: NA
Pressure: 30.12"   Gusts: NA
Location:  30.56°N, 81.83°W
Report Text: KJAX 191156Z 00000KT 10SM SCT190 BKN240 07/06 A3012 RMK AO2 SLP199 T00670056 10072 20050 53008
Loading
Personal Weather Stations






























Interactive Weather Map New forecast layout! Learn more

10-Day Weather Forecast

Advertisements
Track Severe Weather on mobile